createdAt,value
2022-09-07T00:01:33.869Z,47.51
2022-09-07T00:04:40.006Z,47.63
2022-09-07T00:07:48.235Z,47.60
2022-09-07T00:10:57.057Z,47.45
2022-09-07T00:14:07.914Z,47.65
2022-09-07T00:17:13.722Z,47.58
2022-09-07T00:20:20.654Z,47.73
2022-09-07T00:23:26.574Z,47.76
2022-09-07T00:26:35.472Z,47.85
2022-09-07T00:29:44.382Z,48.00
2022-09-07T00:32:51.298Z,48.00
2022-09-07T00:35:57.482Z,48.30
2022-09-07T00:39:04.199Z,48.24
2022-09-07T00:42:11.301Z,48.34
2022-09-07T00:45:22.264Z,48.26
2022-09-07T00:48:33.168Z,48.40
2022-09-07T00:51:45.776Z,48.49
2022-09-07T00:54:57.297Z,48.45
2022-09-07T00:58:04.272Z,48.65
2022-09-07T01:01:13.593Z,48.71
2022-09-07T01:04:20.314Z,48.83
2022-09-07T01:07:27.025Z,49.08
2022-09-07T01:10:34.725Z,49.40
2022-09-07T01:13:42.387Z,49.33
2022-09-07T01:17:03.497Z,49.50
2022-09-07T01:20:42.718Z,49.53
2022-09-07T01:24:37.058Z,49.75
2022-09-07T01:28:13.940Z,49.90
2022-09-07T01:31:28.993Z,50.07
2022-09-07T01:34:35.746Z,49.95
2022-09-07T01:37:48.354Z,50.02
2022-09-07T01:41:04.020Z,50.17
2022-09-07T01:44:18.712Z,50.05
2022-09-07T01:47:30.687Z,50.30
2022-09-07T01:50:45.071Z,50.42
2022-09-07T01:53:56.911Z,50.45
2022-09-07T01:57:08.776Z,50.54
2022-09-07T02:00:23.007Z,50.89
2022-09-07T02:03:36.312Z,50.99
2022-09-07T02:06:49.766Z,51.17
2022-09-07T02:10:00.712Z,51.08
2022-09-07T02:13:13.370Z,51.14
2022-09-07T02:16:27.788Z,51.64
2022-09-07T02:19:39.983Z,51.74
2022-09-07T02:22:50.715Z,52.00
2022-09-07T02:26:03.820Z,51.74
2022-09-07T02:29:11.506Z,51.99
2022-09-07T02:32:20.584Z,52.49
2022-09-07T02:35:27.890Z,52.35
2022-09-07T02:38:34.526Z,52.51
2022-09-07T02:41:43.312Z,52.58
2022-09-07T02:44:50.161Z,52.75
2022-09-07T02:48:16.713Z,53.03
2022-09-07T02:51:33.743Z,53.17
2022-09-07T02:54:56.054Z,53.12
2022-09-07T02:58:16.914Z,53.42
2022-09-07T03:01:38.454Z,53.38
2022-09-07T03:04:53.968Z,53.64
2022-09-07T03:08:08.509Z,53.33
2022-09-07T03:11:16.114Z,53.89
2022-09-07T03:14:24.799Z,53.61
2022-09-07T03:17:31.217Z,53.91
2022-09-07T03:20:40.976Z,53.89
2022-09-07T03:23:51.162Z,53.94
2022-09-07T03:26:58.853Z,54.13
2022-09-07T03:30:06.853Z,53.82
2022-09-07T03:33:16.148Z,54.20
2022-09-07T03:36:25.375Z,54.28
2022-09-07T03:39:32.366Z,54.46
2022-09-07T03:42:38.833Z,54.54
2022-09-07T03:45:46.006Z,54.93
2022-09-07T03:48:54.157Z,54.95
2022-09-07T03:52:04.075Z,55.15
2022-09-07T03:55:11.000Z,55.41
2022-09-07T03:58:18.001Z,55.48
2022-09-07T04:01:26.345Z,55.33
2022-09-07T04:04:33.867Z,55.87
2022-09-07T04:07:42.879Z,55.56
2022-09-07T04:10:49.762Z,55.98
2022-09-07T04:13:55.701Z,56.35
2022-09-07T04:17:03.764Z,56.28
2022-09-07T04:20:11.211Z,56.33
2022-09-07T04:23:21.596Z,56.42
2022-09-07T04:26:31.082Z,56.31
2022-09-07T04:29:38.588Z,56.47
2022-09-07T04:32:44.669Z,56.32
2022-09-07T04:35:51.731Z,56.10
2022-09-07T04:39:03.584Z,56.15
2022-09-07T04:42:11.116Z,56.00
2022-09-07T04:45:17.186Z,56.10
2022-09-07T04:48:24.433Z,55.64
2022-09-07T04:51:32.367Z,55.56
2022-09-07T04:54:42.860Z,55.68
2022-09-07T04:57:52.142Z,55.86
2022-09-07T05:00:59.171Z,55.84
2022-09-07T05:04:08.155Z,55.40
2022-09-07T05:07:15.034Z,55.35
2022-09-07T05:10:24.504Z,55.49
2022-09-07T05:13:33.184Z,55.33
2022-09-07T05:16:39.514Z,55.33
2022-09-07T05:19:47.033Z,55.64
2022-09-07T05:22:59.780Z,55.61
2022-09-07T05:26:13.640Z,55.43
2022-09-07T05:32:48.883Z,55.38
2022-09-07T05:36:00.247Z,55.16
2022-09-07T05:39:10.713Z,54.94
2022-09-07T05:42:19.703Z,54.92
2022-09-07T05:45:26.630Z,55.20
2022-09-07T05:48:33.108Z,55.45
2022-09-07T05:51:40.234Z,55.31
2022-09-07T05:54:46.475Z,55.06
2022-09-07T05:57:56.567Z,55.01
2022-09-07T06:01:04.069Z,54.87
2022-09-07T06:04:11.097Z,54.70
2022-09-07T06:07:22.078Z,54.71
2022-09-07T06:10:46.872Z,54.73
2022-09-07T06:13:56.108Z,54.54
2022-09-07T06:17:03.578Z,54.59
2022-09-07T06:20:10.982Z,54.21
2022-09-07T06:23:18.110Z,53.98
2022-09-07T06:26:24.401Z,53.94
2022-09-07T06:29:34.029Z,53.84
2022-09-07T06:35:58.352Z,54.16
2022-09-07T06:39:04.789Z,54.17
2022-09-07T06:42:11.901Z,54.14
2022-09-07T06:45:25.631Z,54.05
2022-09-07T06:48:33.082Z,53.59
2022-09-07T06:51:39.491Z,53.77
2022-09-07T06:55:02.373Z,53.75
2022-09-07T06:58:08.828Z,53.70
2022-09-07T07:01:20.983Z,53.63
2022-09-07T07:04:27.023Z,53.52
2022-09-07T07:07:34.177Z,53.61
2022-09-07T07:10:42.183Z,53.38
2022-09-07T07:13:49.482Z,53.48
2022-09-07T07:16:58.337Z,53.48
2022-09-07T07:20:07.962Z,53.37
2022-09-07T07:23:15.232Z,53.29
2022-09-07T07:26:27.055Z,53.19
2022-09-07T07:29:33.379Z,53.02
2022-09-07T07:32:44.196Z,53.09
2022-09-07T07:35:50.404Z,53.26
2022-09-07T07:42:12.648Z,53.16
2022-09-07T07:48:51.201Z,53.27
2022-09-07T07:58:52.803Z,53.29
2022-09-07T08:02:04.829Z,53.09
2022-09-07T08:05:17.387Z,53.11
2022-09-07T08:08:25.719Z,53.23
2022-09-07T08:11:35.641Z,53.10
2022-09-07T08:14:42.934Z,53.29
2022-09-07T08:17:51.105Z,52.99
2022-09-07T08:21:04.356Z,53.01
2022-09-07T08:24:12.146Z,53.32
2022-09-07T08:27:22.014Z,53.21
2022-09-07T08:30:29.591Z,53.24
2022-09-07T08:33:35.645Z,53.13
2022-09-07T08:36:45.474Z,53.09
2022-09-07T08:39:51.420Z,53.14
2022-09-07T08:43:10.408Z,53.25
2022-09-07T08:46:25.348Z,53.16
2022-09-07T08:49:44.909Z,53.10
2022-09-07T08:52:58.667Z,52.91
2022-09-07T08:56:10.500Z,52.86
2022-09-07T08:59:24.776Z,52.78
2022-09-07T09:02:36.551Z,52.85
2022-09-07T09:05:51.534Z,52.58
2022-09-07T09:09:20.331Z,52.55
2022-09-07T09:12:37.699Z,52.49
2022-09-07T09:15:54.666Z,52.15
2022-09-07T09:19:16.373Z,51.93
2022-09-07T09:22:26.821Z,51.58
2022-09-07T09:25:39.811Z,51.25
2022-09-07T09:28:46.693Z,50.88
2022-09-07T09:31:53.822Z,50.69
2022-09-07T09:35:06.864Z,50.55
2022-09-07T09:38:35.093Z,50.40
2022-09-07T09:41:45.623Z,50.30
2022-09-07T09:44:51.826Z,49.99
2022-09-07T09:48:01.055Z,49.62
2022-09-07T09:54:43.950Z,49.40
2022-09-07T10:01:28.362Z,49.19
2022-09-07T10:04:37.179Z,49.07
2022-09-07T10:07:55.233Z,48.87
2022-09-07T10:11:03.751Z,48.90
2022-09-07T10:14:21.640Z,48.93
2022-09-07T10:17:32.985Z,48.97
2022-09-07T10:20:41.697Z,48.91
2022-09-07T10:23:48.153Z,48.73
2022-09-07T10:26:55.593Z,48.85
2022-09-07T10:30:07.171Z,48.75
2022-09-07T10:33:22.090Z,48.34
2022-09-07T10:36:39.222Z,48.03
2022-09-07T10:39:51.434Z,48.08
2022-09-07T10:47:01.654Z,47.97
2022-09-07T10:50:29.456Z,47.95
2022-09-07T10:54:30.143Z,47.89
2022-09-07T10:57:32.504Z,47.90
2022-09-07T11:00:50.867Z,47.77
2022-09-07T11:04:27.668Z,46.98
2022-09-07T11:07:55.477Z,46.80
2022-09-07T11:11:08.789Z,47.20
2022-09-07T11:14:19.507Z,47.02
2022-09-07T11:17:29.590Z,46.38
2022-09-07T11:20:42.664Z,46.01
2022-09-07T11:23:55.579Z,45.76
2022-09-07T11:27:11.130Z,45.37
2022-09-07T11:30:23.033Z,45.27
2022-09-07T11:33:36.808Z,45.33
2022-09-07T11:36:52.576Z,45.63
2022-09-07T11:40:07.246Z,46.14
2022-09-07T11:43:23.247Z,46.28
2022-09-07T11:46:37.810Z,46.42
2022-09-07T11:49:50.794Z,46.50
2022-09-07T11:53:07.104Z,46.18
2022-09-07T11:56:18.721Z,46.45
2022-09-07T11:59:37.539Z,46.56
2022-09-07T12:03:10.585Z,46.76
2022-09-07T12:06:55.017Z,46.80
2022-09-07T12:10:30.558Z,47.07
2022-09-07T12:14:11.718Z,46.97
2022-09-07T12:17:39.698Z,46.99
2022-09-07T12:20:47.491Z,47.11
2022-09-07T12:23:54.636Z,47.22
2022-09-07T12:27:06.688Z,46.87
2022-09-07T12:30:55.884Z,46.50
2022-09-07T12:34:43.808Z,46.59
2022-09-07T12:37:50.811Z,46.61
2022-09-07T12:41:03.748Z,46.87
2022-09-07T12:44:19.283Z,46.77
2022-09-07T12:47:33.801Z,46.91
2022-09-07T12:50:46.523Z,46.38
2022-09-07T12:54:08.863Z,46.36
2022-09-07T12:57:32.546Z,46.33
2022-09-07T13:00:59.123Z,46.41
2022-09-07T13:04:43.139Z,46.48
2022-09-07T13:08:18.074Z,46.08
2022-09-07T13:11:37.633Z,46.01
2022-09-07T13:14:44.163Z,46.10
2022-09-07T13:18:00.890Z,45.61
2022-09-07T13:21:36.911Z,45.67
2022-09-07T13:24:55.953Z,45.50
2022-09-07T13:28:09.342Z,45.87
2022-09-07T13:31:31.891Z,45.30
2022-09-07T13:35:06.946Z,45.38
2022-09-07T13:38:17.997Z,45.43
2022-09-07T13:41:27.850Z,45.38
2022-09-07T13:44:37.365Z,44.94
2022-09-07T13:47:53.526Z,44.94
2022-09-07T13:51:10.602Z,44.97
2022-09-07T13:54:27.673Z,45.15
2022-09-07T13:57:42.473Z,44.64
2022-09-07T14:00:58.899Z,44.53
2022-09-07T14:04:09.669Z,44.90
2022-09-07T14:07:22.802Z,44.70
2022-09-07T14:10:30.265Z,44.83
2022-09-07T14:13:36.258Z,44.81
2022-09-07T14:16:44.742Z,44.27
2022-09-07T14:19:52.953Z,44.28
2022-09-07T14:23:03.647Z,44.31
2022-09-07T14:26:18.686Z,43.80
2022-09-07T14:29:27.673Z,44.12
2022-09-07T14:32:33.699Z,44.00
2022-09-07T14:35:42.373Z,44.37
2022-09-07T14:39:08.257Z,44.47
2022-09-07T14:42:16.940Z,44.03
2022-09-07T14:45:34.301Z,44.31
2022-09-07T14:48:42.349Z,44.50
2022-09-07T14:51:49.701Z,44.11
2022-09-07T14:54:59.803Z,44.74
2022-09-07T14:58:27.319Z,44.24
2022-09-07T15:01:37.282Z,44.27
2022-09-07T15:04:43.552Z,43.87
2022-09-07T15:07:51.869Z,44.59
2022-09-07T15:14:36.312Z,44.08
2022-09-07T15:17:43.678Z,44.41
2022-09-07T15:20:50.910Z,43.50
2022-09-07T15:23:58.766Z,43.85
2022-09-07T15:27:21.774Z,43.84
2022-09-07T15:30:27.819Z,44.33
2022-09-07T15:33:34.799Z,44.14
2022-09-07T15:36:42.894Z,43.52
2022-09-07T15:39:49.616Z,44.26
2022-09-07T15:43:00.350Z,44.03
2022-09-07T15:46:09.262Z,44.47
2022-09-07T15:49:15.855Z,44.60
2022-09-07T15:52:22.648Z,44.56
2022-09-07T15:55:28.487Z,44.49
2022-09-07T15:58:38.449Z,43.50
2022-09-07T16:01:52.050Z,44.09
2022-09-07T16:04:59.371Z,43.67
2022-09-07T16:11:35.247Z,42.97
2022-09-07T16:14:44.155Z,42.31
2022-09-07T16:17:53.832Z,42.37
2022-09-07T16:21:00.383Z,43.14
2022-09-07T16:24:09.849Z,42.70
2022-09-07T16:27:16.019Z,43.45
2022-09-07T16:30:26.209Z,43.51
2022-09-07T16:33:36.860Z,43.97
2022-09-07T16:36:44.594Z,43.98
2022-09-07T16:39:51.729Z,44.42
2022-09-07T16:42:58.579Z,45.24
2022-09-07T16:46:11.513Z,45.51
2022-09-07T16:49:19.529Z,45.27
2022-09-07T16:52:26.704Z,45.90
2022-09-07T16:55:34.320Z,45.98
2022-09-07T16:58:42.180Z,46.41
2022-09-07T17:01:51.949Z,46.69
2022-09-07T17:04:58.224Z,47.24
2022-09-07T17:08:07.596Z,47.47
2022-09-07T17:11:16.165Z,47.88
2022-09-07T17:14:23.739Z,48.48
2022-09-07T17:17:33.021Z,48.52
2022-09-07T17:20:40.715Z,49.02
2022-09-07T17:23:54.846Z,49.16
2022-09-07T17:27:04.028Z,49.37
2022-09-07T17:30:11.641Z,49.55
2022-09-07T17:33:21.473Z,49.87
2022-09-07T17:36:28.590Z,50.10
2022-09-07T17:39:35.788Z,50.48
2022-09-07T17:46:10.187Z,51.42
2022-09-07T17:49:19.123Z,51.35
2022-09-07T17:52:28.644Z,51.62
2022-09-07T17:55:35.008Z,52.14
2022-09-07T17:58:43.165Z,52.11
2022-09-07T18:01:49.496Z,52.11
2022-09-07T18:05:00.768Z,52.33
2022-09-07T18:08:09.228Z,52.34
2022-09-07T18:14:44.610Z,52.63
2022-09-07T18:17:51.297Z,52.87
2022-09-07T18:21:00.129Z,53.08
2022-09-07T18:24:11.644Z,53.05
2022-09-07T18:27:21.241Z,53.20
2022-09-07T18:30:29.799Z,53.37
2022-09-07T18:33:35.658Z,53.47
2022-09-07T18:36:45.235Z,53.54
2022-09-07T18:39:52.626Z,53.69
2022-09-07T18:42:59.651Z,53.77
2022-09-07T18:46:11.288Z,53.99
2022-09-07T18:49:18.095Z,53.93
2022-09-07T18:55:53.733Z,54.35
2022-09-07T18:59:00.290Z,54.34
2022-09-07T19:02:12.470Z,54.33
2022-09-07T19:08:50.028Z,54.29
2022-09-07T19:11:56.204Z,54.29
2022-09-07T19:15:04.175Z,54.23
2022-09-07T19:18:11.026Z,54.46
2022-09-07T19:21:19.942Z,54.49
2022-09-07T19:24:28.816Z,54.78
2022-09-07T19:27:36.022Z,54.76
2022-09-07T19:30:42.035Z,54.84
2022-09-07T19:33:48.769Z,54.87
2022-09-07T19:36:55.010Z,54.94
2022-09-07T19:40:07.575Z,55.04
2022-09-07T19:43:13.478Z,54.95
2022-09-07T19:46:24.754Z,54.99
2022-09-07T19:49:31.178Z,55.10
2022-09-07T19:52:38.335Z,55.07
2022-09-07T19:55:47.787Z,55.42
2022-09-07T19:58:54.754Z,55.38
2022-09-07T20:02:00.593Z,55.52
2022-09-07T20:05:09.668Z,55.69
2022-09-07T20:08:15.659Z,55.64
2022-09-07T20:11:26.008Z,55.80
2022-09-07T20:14:31.843Z,55.95
2022-09-07T20:17:38.530Z,56.03
2022-09-07T20:20:44.644Z,56.08
2022-09-07T20:23:52.039Z,56.01
2022-09-07T20:27:03.848Z,56.27
2022-09-07T20:30:11.946Z,56.20
2022-09-07T20:33:18.208Z,56.24
2022-09-07T20:36:25.373Z,56.41
2022-09-07T20:39:34.673Z,56.35
2022-09-07T20:42:48.663Z,56.54
2022-09-07T20:45:59.821Z,56.68
2022-09-07T20:49:11.116Z,56.74
2022-09-07T20:52:17.152Z,56.80
2022-09-07T20:55:24.833Z,56.75
2022-09-07T20:58:34.015Z,56.94
2022-09-07T21:01:41.125Z,56.87
2022-09-07T21:04:46.982Z,57.03
2022-09-07T21:07:54.090Z,57.05
2022-09-07T21:11:00.020Z,57.07
2022-09-07T21:14:15.398Z,57.11
2022-09-07T21:17:21.211Z,57.08
2022-09-07T21:20:27.954Z,57.22
2022-09-07T21:23:35.691Z,57.03
2022-09-07T21:26:42.356Z,57.17
2022-09-07T21:29:51.017Z,57.12
2022-09-07T21:33:02.848Z,57.45
2022-09-07T21:36:11.558Z,57.30
2022-09-07T21:39:19.469Z,57.35
2022-09-07T21:42:25.268Z,57.59
2022-09-07T21:45:35.214Z,57.38
2022-09-07T21:48:41.123Z,57.57
2022-09-07T21:51:47.795Z,57.58
2022-09-07T21:54:53.652Z,57.56
2022-09-07T21:58:01.037Z,57.50
2022-09-07T22:01:17.336Z,57.66
2022-09-07T22:04:24.302Z,57.50
2022-09-07T22:07:30.142Z,57.50
2022-09-07T22:10:37.207Z,57.54
2022-09-07T22:13:44.473Z,57.79
2022-09-07T22:16:53.993Z,57.77
2022-09-07T22:20:00.059Z,57.90
2022-09-07T22:23:09.420Z,57.93
2022-09-07T22:26:16.621Z,57.94
2022-09-07T22:29:23.256Z,58.00
2022-09-07T22:32:31.929Z,58.12
2022-09-07T22:35:38.547Z,58.22
2022-09-07T22:38:44.894Z,58.08
2022-09-07T22:41:51.738Z,58.23
2022-09-07T22:44:57.834Z,58.38
2022-09-07T22:48:07.354Z,58.33
2022-09-07T22:51:14.209Z,58.45
2022-09-07T22:54:20.865Z,58.65
2022-09-07T22:57:26.715Z,58.78
2022-09-07T23:00:33.632Z,58.73
2022-09-07T23:03:42.487Z,59.01
2022-09-07T23:06:49.416Z,59.02
2022-09-07T23:09:55.306Z,58.87
2022-09-07T23:13:03.547Z,59.11
2022-09-07T23:16:10.820Z,59.25
2022-09-07T23:19:22.713Z,59.33
2022-09-07T23:22:28.691Z,59.45
2022-09-07T23:25:38.310Z,59.53
2022-09-07T23:28:44.125Z,59.60
2022-09-07T23:31:51.128Z,59.71
2022-09-07T23:34:59.788Z,59.68
2022-09-07T23:38:09.017Z,59.61
2022-09-07T23:41:15.555Z,59.88
2022-09-07T23:44:22.323Z,59.73
2022-09-07T23:47:28.995Z,59.51
2022-09-07T23:50:39.270Z,59.41
2022-09-07T23:53:45.520Z,59.54
2022-09-07T23:56:52.223Z,59.69
2022-09-07T23:59:58.090Z,59.89
